Time;durP1;ratioP1;P1;durP2;ratioP2;P2;SDS_P1;SDS_P2;PMS_P1;PMS_P2;Temp;Humidity;BMP_temperature;BMP_pressure;BME280_temperature;BME280_humidity;BME280_pressure;Samples;Min_cycle;Max_cycle;Signal;HPM_P1;HPM_P2
2022/05/11 00:00:04;;;;;;;11.63;7.35;;;;;;;;;;2089738;28;20052;-64
2022/05/11 00:01:25;;;;;;;16.17;7.45;;;;;;;;;;2088728;28;20021;-65
2022/05/11 00:02:45;;;;;;;10.25;7.50;;;;;;;;;;2079952;28;20025;-65
2022/05/11 00:04:05;;;;;;;14.85;7.57;;;;;;;;;;2084647;28;20056;-64
2022/05/11 00:05:24;;;;;;;14.32;8.02;;;;;;;;;;2090518;28;20021;-65
2022/05/11 00:06:43;;;;;;;14.52;7.72;;;;;;;;;;2091014;28;20025;-64
2022/05/11 00:08:03;;;;;;;11.57;7.50;;;;;;;;;;2089575;28;20021;-65
2022/05/11 00:09:22;;;;;;;13.05;7.45;;;;;;;;;;2090385;28;20037;-65
2022/05/11 00:10:41;;;;;;;9.27;6.82;;;;;;;;;;2087972;28;20111;-65
2022/05/11 00:12:00;;;;;;;13.55;7.22;;;;;;;;;;2089798;28;20419;-65
2022/05/11 00:13:19;;;;;;;11.27;7.25;;;;;;;;;;2078674;28;20037;-66
2022/05/11 00:14:38;;;;;;;13.52;7.13;;;;;;;;;;2085105;28;20037;-67
2022/05/11 00:15:57;;;;;;;14.60;7.78;;;;;;;;;;2081001;28;20444;-66
2022/05/11 00:17:16;;;;;;;14.15;6.95;;;;;;;;;;2078282;28;20041;-66
2022/05/11 00:18:35;;;;;;;9.43;6.60;;;;;;;;;;2077630;28;20033;-65
2022/05/11 00:19:54;;;;;;;12.20;7.03;;;;;;;;;;2086122;28;20025;-66
2022/05/11 00:21:13;;;;;;;11.77;6.82;;;;;;;;;;2088561;28;20033;-66
2022/05/11 00:22:33;;;;;;;10.02;6.80;;;;;;;;;;2089472;28;20024;-67
2022/05/11 00:23:52;;;;;;;11.00;7.80;;;;;;;;;;2080095;28;20112;-65
2022/05/11 00:25:13;;;;;;;10.13;6.75;;;;;;;;;;2086609;28;20037;-66
2022/05/11 00:26:32;;;;;;;15.02;7.53;;;;;;;;;;2081125;28;20415;-65
2022/05/11 00:27:55;;;;;;;10.40;6.55;;;;;;;;;;2086057;28;20052;-65
2022/05/11 00:29:14;;;;;;;8.50;6.70;;;;;;;;;;2088864;28;20036;-65
2022/05/11 00:30:33;;;;;;;8.90;6.43;;;;;;;;;;2090174;28;20097;-65
2022/05/11 00:31:54;;;;;;;10.35;5.93;;;;;;;;;;2089394;28;20021;-65
2022/05/11 00:33:14;;;;;;;10.88;5.95;;;;;;;;;;2089925;28;20479;-64
2022/05/11 00:34:33;;;;;;;7.70;5.97;;;;;;;;;;2088448;28;20029;-65
2022/05/11 00:35:52;;;;;;;9.85;5.60;;;;;;;;;;2089040;28;20107;-65
2022/05/11 00:37:11;;;;;;;9.45;6.15;;;;;;;;;;2088835;28;20030;-64
2022/05/11 00:38:30;;;;;;;8.45;6.00;;;;;;;;;;2089293;28;20041;-65
2022/05/11 00:39:49;;;;;;;7.32;5.78;;;;;;;;;;2079087;28;20108;-66
2022/05/11 00:41:08;;;;;;;9.02;6.07;;;;;;;;;;2077675;28;20484;-65
2022/05/11 00:42:27;;;;;;;6.65;5.72;;;;;;;;;;2077442;28;20021;-64
2022/05/11 00:43:54;;;;;;;9.50;5.18;;;;;;;;;;2078592;28;20034;-65
2022/05/11 00:45:13;;;;;;;5.60;5.00;;;;;;;;;;2086041;28;20029;-64
2022/05/11 00:46:35;;;;;;;5.32;4.30;;;;;;;;;;2088811;28;20108;-65
2022/05/11 00:48:02;;;;;;;8.30;5.28;;;;;;;;;;2088323;28;20025;-65
2022/05/11 00:49:40;;;;;;;7.55;4.30;;;;;;;;;;2089518;28;20025;-65
2022/05/11 00:50:59;;;;;;;7.75;4.70;;;;;;;;;;2089035;28;20088;-65
2022/05/11 00:52:18;;;;;;;9.75;3.42;;;;;;;;;;2089065;28;20132;-65
2022/05/11 00:53:37;;;;;;;4.55;4.10;;;;;;;;;;2089948;28;20515;-65
2022/05/11 00:55:00;;;;;;;4.53;4.10;;;;;;;;;;2089436;28;20447;-65
2022/05/11 00:56:20;;;;;;;5.95;4.38;;;;;;;;;;2089625;28;20033;-65
2022/05/11 00:57:42;;;;;;;5.82;3.50;;;;;;;;;;2088888;28;20029;-65
2022/05/11 00:59:09;;;;;;;4.07;3.63;;;;;;;;;;2089275;28;20036;-65
2022/05/11 01:00:28;;;;;;;3.63;3.03;;;;;;;;;;2089886;28;20029;-65
2022/05/11 01:01:47;;;;;;;7.43;3.50;;;;;;;;;;2089690;28;20395;-65
2022/05/11 01:03:07;;;;;;;3.88;2.83;;;;;;;;;;2089244;28;20399;-65
2022/05/11 01:04:27;;;;;;;4.75;2.97;;;;;;;;;;2089020;28;20124;-65
2022/05/11 01:05:46;;;;;;;3.30;3.03;;;;;;;;;;2083066;28;20511;-65
2022/05/11 01:07:07;;;;;;;5.43;3.08;;;;;;;;;;2085022;28;20033;-65
2022/05/11 01:08:27;;;;;;;3.15;2.38;;;;;;;;;;2089639;28;20025;-64
2022/05/11 01:09:46;;;;;;;3.33;3.03;;;;;;;;;;2087803;28;20033;-65
2022/05/11 01:11:05;;;;;;;3.95;2.10;;;;;;;;;;2088277;28;20017;-64
2022/05/11 01:12:29;;;;;;;2.70;2.50;;;;;;;;;;2087938;28;20025;-64
2022/05/11 01:13:48;;;;;;;2.47;2.25;;;;;;;;;;2089847;28;20029;-65
2022/05/11 01:15:08;;;;;;;3.53;2.30;;;;;;;;;;2079590;28;20037;-65
2022/05/11 01:16:29;;;;;;;2.92;2.42;;;;;;;;;;2085774;28;20033;-64
2022/05/11 01:17:48;;;;;;;4.55;2.30;;;;;;;;;;2086644;28;20037;-64
2022/05/11 01:19:09;;;;;;;2.38;2.20;;;;;;;;;;2088985;28;20025;-65
2022/05/11 01:20:30;;;;;;;3.17;1.90;;;;;;;;;;2089493;28;20066;-64
2022/05/11 01:21:55;;;;;;;2.60;2.40;;;;;;;;;;2088311;28;20029;-64
2022/05/11 01:23:17;;;;;;;4.95;1.88;;;;;;;;;;2088985;28;20022;-65
2022/05/11 01:24:41;;;;;;;2.47;2.28;;;;;;;;;;2079346;28;20081;-64
2022/05/11 01:25:59;;;;;;;;;;;;;;;;;;2085437;28;20013;-65
2022/05/11 01:27:28;;;;;;;3.03;2.55;;;;;;;;;;2088466;28;19996;-65
2022/05/11 01:28:48;;;;;;;2.70;2.05;;;;;;;;;;2080533;28;20017;-65
2022/05/11 01:30:18;;;;;;;2.47;2.28;;;;;;;;;;2084584;28;20127;-64
2022/05/11 01:31:37;;;;;;;2.38;1.98;;;;;;;;;;2088604;28;20096;-65
2022/05/11 01:32:56;;;;;;;2.42;1.83;;;;;;;;;;2089417;28;20430;-65
2022/05/11 01:34:20;;;;;;;2.20;1.80;;;;;;;;;;2088199;28;20040;-65
2022/05/11 01:35:58;;;;;;;2.92;1.75;;;;;;;;;;2089612;28;20387;-64
2022/05/11 01:37:17;;;;;;;2.65;1.80;;;;;;;;;;2080031;28;20037;-64
2022/05/11 01:38:39;;;;;;;2.10;1.80;;;;;;;;;;2084356;28;20057;-65
2022/05/11 01:39:58;;;;;;;2.00;1.73;;;;;;;;;;2080525;28;20033;-65
2022/05/11 01:41:29;;;;;;;2.00;1.80;;;;;;;;;;2085188;28;20395;-65
2022/05/11 01:42:49;;;;;;;1.85;1.20;;;;;;;;;;2079928;28;20447;-65
2022/05/11 01:44:10;;;;;;;2.00;1.60;;;;;;;;;;2085935;28;20025;-65
2022/05/11 01:45:29;;;;;;;2.38;2.15;;;;;;;;;;2089041;28;20069;-65
2022/05/11 01:46:52;;;;;;;4.15;1.67;;;;;;;;;;2087487;28;20033;-65
2022/05/11 01:48:11;;;;;;;4.00;2.08;;;;;;;;;;2089602;28;20110;-65
2022/05/11 01:49:31;;;;;;;2.00;1.90;;;;;;;;;;2088536;28;20037;-65
2022/05/11 01:50:50;;;;;;;2.58;1.80;;;;;;;;;;2079050;28;20025;-65
2022/05/11 01:52:08;;;;;;;1.88;1.70;;;;;;;;;;2074742;28;20029;-66
2022/05/11 01:53:28;;;;;;;2.85;1.75;;;;;;;;;;2085976;28;20025;-66
2022/05/11 01:54:47;;;;;;;2.08;1.88;;;;;;;;;;2089420;28;20025;-65
2022/05/11 01:56:06;;;;;;;2.00;1.60;;;;;;;;;;2089137;28;20037;-65
2022/05/11 01:57:25;;;;;;;2.60;2.08;;;;;;;;;;2081024;28;20030;-66
2022/05/11 01:58:44;;;;;;;4.15;1.90;;;;;;;;;;2084942;28;20029;-65
2022/05/11 02:00:04;;;;;;;5.20;1.90;;;;;;;;;;2089718;28;20065;-66
2022/05/11 02:01:27;;;;;;;3.88;2.03;;;;;;;;;;2089597;28;20025;-66
2022/05/11 02:02:45;;;;;;;2.53;1.77;;;;;;;;;;2089149;28;20468;-65
2022/05/11 02:07:49;;;;;;;2.13;1.77;;;;;;;;;;2089010;28;20033;-65
2022/05/11 02:09:00;;;;;;;5.05;2.08;;;;;;;;;;2088440;28;20052;-65
2022/05/11 02:10:21;;;;;;;3.40;1.98;;;;;;;;;;2079215;28;20033;-65
2022/05/11 02:11:40;;;;;;;3.55;2.08;;;;;;;;;;2084670;28;20115;-65
2022/05/11 02:12:59;;;;;;;3.75;2.60;;;;;;;;;;2088616;28;20021;-65
2022/05/11 02:14:17;;;;;;;4.13;2.03;;;;;;;;;;2088836;28;20025;-64
2022/05/11 02:15:37;;;;;;;3.47;2.25;;;;;;;;;;2088785;28;20025;-65
2022/05/11 02:16:55;;;;;;;3.80;2.00;;;;;;;;;;2088859;28;20064;-65
2022/05/11 02:18:14;;;;;;;4.13;2.15;;;;;;;;;;2089282;28;20029;-65
2022/05/11 02:19:33;;;;;;;2.75;2.05;;;;;;;;;;2086290;28;20021;-65
2022/05/11 02:20:52;;;;;;;6.32;1.95;;;;;;;;;;2086404;28;20029;-64
2022/05/11 02:22:11;;;;;;;3.10;2.03;;;;;;;;;;2088428;28;20025;-66
2022/05/11 02:23:30;;;;;;;4.30;2.40;;;;;;;;;;2089156;28;20104;-64
2022/05/11 02:24:49;;;;;;;2.75;1.70;;;;;;;;;;2089536;28;20511;-65
2022/05/11 02:26:09;;;;;;;2.55;2.30;;;;;;;;;;2083740;28;20491;-65
2022/05/11 02:27:28;;;;;;;4.05;2.22;;;;;;;;;;2087133;28;20025;-65
2022/05/11 02:28:47;;;;;;;4.75;2.00;;;;;;;;;;2089281;28;20065;-64
2022/05/11 02:30:07;;;;;;;3.58;2.03;;;;;;;;;;2088075;28;20033;-64
2022/05/11 02:31:26;;;;;;;3.17;1.85;;;;;;;;;;2087241;28;20033;-65
2022/05/11 02:32:45;;;;;;;3.33;2.42;;;;;;;;;;2089453;28;20033;-65
2022/05/11 02:34:06;;;;;;;5.32;2.20;;;;;;;;;;2089158;28;20037;-65
2022/05/11 02:35:25;;;;;;;2.38;2.17;;;;;;;;;;2088591;28;20037;-65
2022/05/11 02:36:44;;;;;;;2.53;1.85;;;;;;;;;;2089408;28;20051;-65
2022/05/11 02:38:08;;;;;;;3.58;2.15;;;;;;;;;;2087368;28;20065;-65
2022/05/11 02:39:26;;;;;;;3.85;1.98;;;;;;;;;;2089191;28;20025;-65
2022/05/11 02:40:47;;;;;;;3.90;1.90;;;;;;;;;;2087915;28;20104;-64
2022/05/11 02:42:06;;;;;;;5.53;2.30;;;;;;;;;;2089135;28;20033;-65
2022/05/11 02:43:26;;;;;;;4.90;2.28;;;;;;;;;;2080605;28;20026;-65
2022/05/11 02:44:45;;;;;;;4.13;2.72;;;;;;;;;;2077045;28;20230;-65
2022/05/11 02:46:04;;;;;;;4.75;2.63;;;;;;;;;;2085545;28;20030;-64
2022/05/11 02:47:23;;;;;;;7.70;3.22;;;;;;;;;;2090138;28;20041;-65
2022/05/11 02:48:42;;;;;;;5.35;2.40;;;;;;;;;;2081820;28;20026;-65
2022/05/11 02:50:03;;;;;;;3.83;2.30;;;;;;;;;;2085851;28;20060;-64
2022/05/11 02:51:22;;;;;;;9.15;3.28;;;;;;;;;;2090248;28;20029;-66
2022/05/11 02:52:41;;;;;;;3.42;2.35;;;;;;;;;;2090410;28;20391;-66
2022/05/11 02:54:00;;;;;;;5.03;2.67;;;;;;;;;;2089148;28;20056;-66
2022/05/11 02:55:19;;;;;;;2.47;2.08;;;;;;;;;;2090721;28;20033;-65
2022/05/11 02:56:41;;;;;;;2.47;2.28;;;;;;;;;;2089164;28;20025;-66
2022/05/11 02:58:00;;;;;;;5.15;2.53;;;;;;;;;;2088717;28;20025;-66
2022/05/11 02:59:19;;;;;;;6.05;2.22;;;;;;;;;;2089617;28;20399;-65
2022/05/11 03:00:39;;;;;;;6.97;2.33;;;;;;;;;;2090590;28;20029;-66
2022/05/11 03:01:58;;;;;;;2.33;2.10;;;;;;;;;;2090382;28;20454;-66
2022/05/11 03:03:17;;;;;;;4.80;2.65;;;;;;;;;;2090724;28;20438;-66
2022/05/11 03:04:36;;;;;;;2.88;2.45;;;;;;;;;;2090776;28;20115;-66
2022/05/11 03:05:55;;;;;;;3.58;2.40;;;;;;;;;;2090106;28;20056;-65
2022/05/11 03:07:14;;;;;;;4.57;2.10;;;;;;;;;;2081985;28;20426;-65
2022/05/11 03:08:33;;;;;;;3.97;2.17;;;;;;;;;;2077990;28;20450;-65
2022/05/11 03:09:53;;;;;;;5.28;2.50;;;;;;;;;;2086968;28;20492;-65
2022/05/11 03:11:12;;;;;;;5.88;2.33;;;;;;;;;;2089510;28;20032;-65
2022/05/11 03:12:32;;;;;;;3.92;2.50;;;;;;;;;;2081257;28;20037;-65
2022/05/11 03:13:51;;;;;;;4.07;2.10;;;;;;;;;;2086909;28;20037;-64
2022/05/11 03:15:10;;;;;;;4.18;2.42;;;;;;;;;;2090383;28;20040;-65
2022/05/11 03:16:29;;;;;;;6.63;2.60;;;;;;;;;;2090362;28;20029;-64
2022/05/11 03:17:49;;;;;;;3.95;2.55;;;;;;;;;;2090956;28;20040;-65
2022/05/11 03:19:08;;;;;;;2.92;2.20;;;;;;;;;;2085743;28;20466;-64
2022/05/11 03:20:27;;;;;;;5.85;2.33;;;;;;;;;;2080235;28;20101;-64
2022/05/11 03:21:47;;;;;;;4.68;2.42;;;;;;;;;;2084376;28;20033;-64
2022/05/11 03:23:06;;;;;;;3.42;2.53;;;;;;;;;;2081832;28;20026;-65
2022/05/11 03:24:25;;;;;;;6.38;2.75;;;;;;;;;;2085464;28;20056;-65
2022/05/11 03:25:44;;;;;;;5.10;2.70;;;;;;;;;;2089689;28;20029;-65
2022/05/11 03:27:04;;;;;;;4.55;2.83;;;;;;;;;;2089571;28;20037;-65
2022/05/11 03:28:23;;;;;;;6.88;2.25;;;;;;;;;;2090091;28;20029;-63
2022/05/11 03:29:41;;;;;;;7.35;2.65;;;;;;;;;;2091677;28;20033;-65
2022/05/11 03:31:00;;;;;;;8.10;2.75;;;;;;;;;;2089781;28;20394;-64
2022/05/11 03:35:36;;;;;;;2.90;2.55;;;;;;;;;;2087798;28;20446;-64
2022/05/11 03:36:55;;;;;;;4.53;2.85;;;;;;;;;;2089736;28;20041;-64
2022/05/11 03:38:14;;;;;;;8.07;3.13;;;;;;;;;;2089914;28;20045;-64
2022/05/11 03:39:33;;;;;;;6.00;2.50;;;;;;;;;;2090040;28;20033;-65
2022/05/11 03:40:52;;;;;;;7.68;2.90;;;;;;;;;;2088948;28;20024;-62
2022/05/11 03:42:12;;;;;;;4.97;2.97;;;;;;;;;;2088115;28;20037;-64
2022/05/11 03:43:32;;;;;;;4.38;2.47;;;;;;;;;;2087681;28;20026;-65
2022/05/11 03:44:50;;;;;;;6.57;2.60;;;;;;;;;;2087967;28;20053;-65
2022/05/11 03:46:10;;;;;;;5.65;2.63;;;;;;;;;;2080830;28;20022;-64
2022/05/11 03:47:29;;;;;;;5.70;2.65;;;;;;;;;;2086793;28;20036;-64
2022/05/11 03:48:48;;;;;;;10.73;2.90;;;;;;;;;;2090088;28;20394;-64
2022/05/11 03:50:07;;;;;;;6.38;2.67;;;;;;;;;;2089945;28;20029;-65
2022/05/11 03:51:26;;;;;;;9.88;2.78;;;;;;;;;;2090239;28;20029;-64
2022/05/11 03:52:45;;;;;;;6.05;3.20;;;;;;;;;;2089881;28;20029;-64
2022/05/11 03:54:04;;;;;;;6.50;3.08;;;;;;;;;;2089433;28;20029;-66
2022/05/11 03:55:24;;;;;;;6.22;2.58;;;;;;;;;;2090612;28;20430;-64
2022/05/11 03:56:43;;;;;;;5.65;2.95;;;;;;;;;;2090513;28;20033;-65
2022/05/11 03:58:02;;;;;;;7.10;3.05;;;;;;;;;;2079654;28;20034;-65
2022/05/11 03:59:21;;;;;;;9.80;3.13;;;;;;;;;;2086809;28;20025;-64
2022/05/11 04:00:41;;;;;;;7.32;3.03;;;;;;;;;;2090500;28;20136;-65
2022/05/11 04:01:59;;;;;;;6.10;3.00;;;;;;;;;;2089008;28;20021;-65
2022/05/11 04:03:18;;;;;;;8.93;3.20;;;;;;;;;;2090772;28;20041;-65
2022/05/11 04:04:37;;;;;;;6.75;3.22;;;;;;;;;;2090462;28;20029;-65
2022/05/11 04:05:56;;;;;;;4.32;2.72;;;;;;;;;;2088017;28;20017;-64
2022/05/11 04:07:16;;;;;;;7.30;2.85;;;;;;;;;;2081437;28;20500;-65
2022/05/11 04:08:35;;;;;;;6.95;2.80;;;;;;;;;;2083830;28;20538;-62
2022/05/11 04:09:54;;;;;;;11.02;3.22;;;;;;;;;;2088747;28;20395;-65
2022/05/11 04:11:13;;;;;;;5.90;2.75;;;;;;;;;;2090032;28;20033;-69
2022/05/11 04:12:32;;;;;;;5.55;2.90;;;;;;;;;;2088987;28;20037;-65
2022/05/11 04:13:51;;;;;;;13.25;3.50;;;;;;;;;;2088473;28;20056;-65
2022/05/11 04:15:11;;;;;;;8.63;3.25;;;;;;;;;;2090684;28;20468;-64
2022/05/11 04:16:30;;;;;;;7.60;3.22;;;;;;;;;;2079036;28;20029;-66
2022/05/11 04:17:49;;;;;;;4.80;3.20;;;;;;;;;;2085325;28;20104;-65
2022/05/11 04:19:09;;;;;;;6.95;2.97;;;;;;;;;;2087676;28;20395;-65
2022/05/11 04:20:28;;;;;;;5.57;2.80;;;;;;;;;;2089056;28;20025;-65
2022/05/11 04:21:46;;;;;;;6.20;2.88;;;;;;;;;;2089237;28;20107;-65
2022/05/11 04:23:08;;;;;;;9.10;2.53;;;;;;;;;;2088861;28;20045;-67
2022/05/11 04:24:27;;;;;;;5.93;2.72;;;;;;;;;;2088613;28;20372;-67
2022/05/11 04:25:46;;;;;;;8.70;2.80;;;;;;;;;;2089764;28;20041;-67
2022/05/11 04:27:05;;;;;;;8.77;3.25;;;;;;;;;;2089638;28;20029;-66
2022/05/11 04:28:24;;;;;;;8.18;2.90;;;;;;;;;;2088026;28;20041;-66
2022/05/11 04:29:43;;;;;;;8.02;3.10;;;;;;;;;;2088953;28;20025;-65
2022/05/11 04:31:03;;;;;;;3.03;2.17;;;;;;;;;;2090265;28;20021;-67
2022/05/11 04:32:22;;;;;;;8.68;2.47;;;;;;;;;;2088929;28;20029;-68
2022/05/11 04:33:41;;;;;;;5.63;3.17;;;;;;;;;;2080777;28;20041;-66
2022/05/11 04:35:00;;;;;;;8.48;3.35;;;;;;;;;;2077182;28;20085;-66
2022/05/11 04:36:21;;;;;;;10.70;3.33;;;;;;;;;;2085947;28;20404;-66
2022/05/11 04:37:39;;;;;;;7.22;3.03;;;;;;;;;;2079820;28;20037;-66
2022/05/11 04:38:58;;;;;;;7.07;2.92;;;;;;;;;;2079355;28;20037;-67
2022/05/11 04:40:17;;;;;;;5.60;2.97;;;;;;;;;;2082377;28;20038;-67
2022/05/11 04:41:36;;;;;;;6.75;3.10;;;;;;;;;;2081796;28;20108;-67
2022/05/11 04:42:56;;;;;;;8.95;3.17;;;;;;;;;;2081834;28;20061;-68
2022/05/11 04:44:15;;;;;;;5.93;3.03;;;;;;;;;;2080961;28;20029;-67
2022/05/11 04:45:38;;;;;;;6.22;3.13;;;;;;;;;;2079405;28;20025;-67
2022/05/11 04:46:57;;;;;;;6.55;2.65;;;;;;;;;;2082150;28;20026;-68
2022/05/11 04:48:17;;;;;;;7.88;2.92;;;;;;;;;;2063191;28;20034;-68
2022/05/11 04:49:36;;;;;;;5.35;2.70;;;;;;;;;;2075305;28;20033;-68
2022/05/11 04:50:59;;;;;;;10.73;3.22;;;;;;;;;;2082634;28;20026;-67
2022/05/11 04:52:18;;;;;;;9.48;3.00;;;;;;;;;;2080518;28;20033;-67
2022/05/11 04:53:37;;;;;;;10.18;3.50;;;;;;;;;;2072857;28;20049;-67
2022/05/11 04:54:56;;;;;;;8.95;3.13;;;;;;;;;;2077100;28;20112;-67
2022/05/11 04:56:15;;;;;;;8.43;3.33;;;;;;;;;;2071209;28;20038;-68
2022/05/11 04:57:34;;;;;;;8.93;3.92;;;;;;;;;;2077055;28;20483;-68
2022/05/11 04:58:57;;;;;;;9.48;2.83;;;;;;;;;;2081322;28;20116;-66
2022/05/11 05:00:16;;;;;;;7.85;2.90;;;;;;;;;;2081374;28;20026;-67
2022/05/11 05:01:35;;;;;;;10.63;3.83;;;;;;;;;;2081290;28;20029;-67
2022/05/11 05:02:54;;;;;;;3.97;2.50;;;;;;;;;;2071521;28;20026;-67
2022/05/11 05:04:15;;;;;;;10.48;3.03;;;;;;;;;;2074732;28;20026;-68
2022/05/11 05:05:34;;;;;;;6.88;2.78;;;;;;;;;;2080885;28;20488;-66
2022/05/11 05:06:53;;;;;;;9.63;2.85;;;;;;;;;;2080308;28;20033;-66
2022/05/11 05:08:13;;;;;;;6.95;2.92;;;;;;;;;;2080653;28;20026;-66
2022/05/11 05:09:32;;;;;;;9.48;3.20;;;;;;;;;;2080117;28;20121;-67
2022/05/11 05:10:51;;;;;;;10.95;3.03;;;;;;;;;;2080885;28;20489;-66
2022/05/11 05:12:11;;;;;;;7.78;3.65;;;;;;;;;;2079834;28;20025;-67
2022/05/11 05:13:38;;;;;;;4.78;2.50;;;;;;;;;;2070094;28;20033;-69
2022/05/11 05:14:58;;;;;;;8.57;3.03;;;;;;;;;;2072396;28;20026;-67
2022/05/11 05:16:17;;;;;;;7.05;2.85;;;;;;;;;;2077747;28;20034;-67
2022/05/11 05:17:37;;;;;;;14.38;3.40;;;;;;;;;;2080089;28;20034;-66
2022/05/11 05:18:56;;;;;;;11.98;3.45;;;;;;;;;;2078621;28;20041;-67
2022/05/11 05:20:15;;;;;;;9.93;3.65;;;;;;;;;;2080609;28;20029;-67
2022/05/11 05:21:33;;;;;;;6.70;2.70;;;;;;;;;;2082904;28;20511;-67
2022/05/11 05:22:52;;;;;;;7.65;3.00;;;;;;;;;;2071460;28;20069;-66
2022/05/11 05:24:11;;;;;;;9.07;3.08;;;;;;;;;;2075441;28;20038;-66
2022/05/11 05:25:30;;;;;;;10.07;3.65;;;;;;;;;;2080476;28;20022;-65
2022/05/11 05:26:49;;;;;;;6.68;2.80;;;;;;;;;;2081112;28;20030;-66
2022/05/11 05:31:27;;;;;;;9.10;2.88;;;;;;;;;;2081084;28;20033;-66
2022/05/11 05:32:46;;;;;;;7.30;3.35;;;;;;;;;;2081104;28;20022;-66
2022/05/11 05:34:05;;;;;;;9.02;2.85;;;;;;;;;;2080599;28;20074;-66
2022/05/11 05:35:24;;;;;;;5.57;2.90;;;;;;;;;;2080755;28;20057;-66
2022/05/11 05:36:43;;;;;;;8.20;2.88;;;;;;;;;;2081549;28;20053;-67
2022/05/11 05:38:03;;;;;;;14.02;3.10;;;;;;;;;;2081387;28;20033;-65
2022/05/11 05:39:23;;;;;;;6.15;3.17;;;;;;;;;;2088929;28;20041;-66
2022/05/11 05:40:42;;;;;;;8.02;3.38;;;;;;;;;;2089069;28;20057;-66
2022/05/11 05:42:04;;;;;;;7.70;3.22;;;;;;;;;;2080078;28;20048;-65
2022/05/11 05:43:23;;;;;;;12.10;3.60;;;;;;;;;;2076916;28;20052;-65
2022/05/11 05:44:42;;;;;;;12.02;3.50;;;;;;;;;;2076488;28;20030;-66
2022/05/11 05:46:01;;;;;;;8.32;2.90;;;;;;;;;;2083694;28;20017;-65
2022/05/11 05:47:20;;;;;;;10.45;3.35;;;;;;;;;;2083508;28;20104;-66
2022/05/11 05:48:39;;;;;;;9.82;3.38;;;;;;;;;;2077417;28;20041;-65
2022/05/11 05:49:58;;;;;;;7.20;3.20;;;;;;;;;;2074736;28;20033;-67
2022/05/11 05:51:18;;;;;;;8.02;2.97;;;;;;;;;;2083180;28;20061;-67
2022/05/11 05:52:37;;;;;;;4.47;3.05;;;;;;;;;;2079896;28;20033;-66
2022/05/11 05:53:57;;;;;;;11.35;3.50;;;;;;;;;;2085620;28;20033;-66
2022/05/11 05:55:18;;;;;;;10.80;3.45;;;;;;;;;;2079861;28;20073;-66
2022/05/11 05:56:37;;;;;;;6.80;2.78;;;;;;;;;;2086368;28;20029;-66
2022/05/11 05:57:56;;;;;;;5.45;2.50;;;;;;;;;;2088494;28;20112;-66
2022/05/11 05:59:16;;;;;;;7.55;2.85;;;;;;;;;;2087804;28;20030;-66
2022/05/11 06:00:35;;;;;;;7.90;3.15;;;;;;;;;;2088333;28;20033;-66
2022/05/11 06:01:54;;;;;;;7.07;2.75;;;;;;;;;;2089821;28;20025;-66
2022/05/11 06:03:18;;;;;;;10.43;2.45;;;;;;;;;;2089430;28;20029;-66
2022/05/11 06:04:37;;;;;;;9.23;2.78;;;;;;;;;;2089003;28;20025;-66
2022/05/11 06:05:56;;;;;;;7.72;2.70;;;;;;;;;;2089300;28;20119;-66
2022/05/11 06:07:15;;;;;;;7.32;2.72;;;;;;;;;;2089236;28;20026;-66
2022/05/11 06:08:36;;;;;;;8.38;2.92;;;;;;;;;;2089636;28;20025;-66
2022/05/11 06:09:55;;;;;;;10.52;3.33;;;;;;;;;;2079298;28;20563;-66
2022/05/11 06:11:14;;;;;;;7.40;2.90;;;;;;;;;;2077520;28;20041;-65
2022/05/11 06:12:33;;;;;;;10.65;2.85;;;;;;;;;;2080144;28;20030;-66
2022/05/11 06:13:52;;;;;;;8.20;2.70;;;;;;;;;;2085981;28;20021;-65
2022/05/11 06:15:13;;;;;;;7.38;2.65;;;;;;;;;;2087061;28;20044;-67
2022/05/11 06:16:32;;;;;;;11.27;3.45;;;;;;;;;;2089478;28;20025;-67
2022/05/11 06:17:51;;;;;;;10.30;3.08;;;;;;;;;;2089740;28;20037;-65
2022/05/11 06:19:10;;;;;;;13.65;3.45;;;;;;;;;;2088360;28;20068;-66
2022/05/11 06:20:29;;;;;;;8.43;2.78;;;;;;;;;;2090065;28;20028;-67
2022/05/11 06:21:48;;;;;;;10.75;3.38;;;;;;;;;;2089422;28;20030;-67
2022/05/11 06:23:07;;;;;;;12.35;3.33;;;;;;;;;;2082544;28;20025;-66
2022/05/11 06:24:29;;;;;;;14.23;3.00;;;;;;;;;;2087684;28;20037;-66
2022/05/11 06:25:51;;;;;;;11.05;2.72;;;;;;;;;;2091137;28;20025;-67
2022/05/11 06:27:15;;;;;;;8.07;2.70;;;;;;;;;;2088655;28;20546;-67
2022/05/11 06:28:35;;;;;;;13.60;2.92;;;;;;;;;;2088764;28;20028;-66
2022/05/11 06:29:59;;;;;;;7.88;2.75;;;;;;;;;;2090689;28;20041;-66
2022/05/11 06:31:18;;;;;;;11.63;3.65;;;;;;;;;;2090106;28;20021;-66
2022/05/11 06:32:37;;;;;;;10.43;3.15;;;;;;;;;;2083168;28;20459;-66
2022/05/11 06:33:56;;;;;;;6.03;2.33;;;;;;;;;;2078992;28;20042;-66
2022/05/11 06:35:15;;;;;;;8.95;2.97;;;;;;;;;;2087446;28;20094;-66
2022/05/11 06:36:34;;;;;;;8.48;3.00;;;;;;;;;;2090938;28;20061;-66
2022/05/11 06:37:54;;;;;;;11.70;3.40;;;;;;;;;;2089928;28;20033;-66
2022/05/11 06:39:13;;;;;;;9.48;2.90;;;;;;;;;;2088945;28;20491;-66
2022/05/11 06:40:33;;;;;;;9.40;3.30;;;;;;;;;;2089367;28;20053;-67
2022/05/11 06:41:51;;;;;;;11.32;3.75;;;;;;;;;;2089864;28;20033;-67
2022/05/11 06:43:10;;;;;;;9.55;2.50;;;;;;;;;;2090114;28;20036;-67
2022/05/11 06:44:29;;;;;;;11.15;3.20;;;;;;;;;;2080979;28;20041;-66
2022/05/11 06:45:48;;;;;;;10.68;2.85;;;;;;;;;;2086999;28;20033;-66
2022/05/11 06:47:07;;;;;;;5.88;2.53;;;;;;;;;;2082026;28;20097;-66
2022/05/11 06:48:26;;;;;;;8.45;2.35;;;;;;;;;;2078589;28;20037;-66
2022/05/11 06:49:45;;;;;;;8.25;2.63;;;;;;;;;;2087026;28;20053;-66
2022/05/11 06:51:04;;;;;;;7.88;2.50;;;;;;;;;;2090903;28;20029;-66
2022/05/11 06:52:23;;;;;;;6.72;3.25;;;;;;;;;;2091038;28;20052;-67
2022/05/11 07:00:14;;;;;;;9.00;2.25;;;;;;;;;;2089217;28;20100;-67
2022/05/11 07:01:33;;;;;;;9.52;2.30;;;;;;;;;;2088897;28;20029;-67
2022/05/11 07:02:51;;;;;;;7.40;2.53;;;;;;;;;;2090674;28;20021;-67
2022/05/11 07:04:11;;;;;;;9.13;2.67;;;;;;;;;;2087449;28;20495;-67
2022/05/11 07:05:30;;;;;;;6.80;2.97;;;;;;;;;;2090258;28;20461;-67
2022/05/11 07:06:53;;;;;;;11.95;3.00;;;;;;;;;;2090821;28;20044;-67
2022/05/11 07:08:12;;;;;;;4.13;1.95;;;;;;;;;;2090730;28;20495;-66
2022/05/11 07:09:32;;;;;;;5.22;1.80;;;;;;;;;;2081667;28;20045;-67
2022/05/11 07:12:37;;;;;;;9.55;2.53;;;;;;;;;;2089424;28;20037;-67
2022/05/11 07:13:57;;;;;;;6.72;2.45;;;;;;;;;;2090662;28;20499;-67
2022/05/11 07:15:18;;;;;;;6.65;3.00;;;;;;;;;;2090659;28;20033;-67
2022/05/11 07:16:37;;;;;;;6.50;2.28;;;;;;;;;;2090417;28;20041;-66
2022/05/11 07:17:59;;;;;;;12.57;3.53;;;;;;;;;;2090143;28;20037;-67
2022/05/11 07:19:21;;;;;;;14.38;2.72;;;;;;;;;;2081524;28;20034;-67
2022/05/11 07:20:40;;;;;;;5.75;2.10;;;;;;;;;;2086243;28;20511;-67
2022/05/11 07:21:59;;;;;;;9.38;3.08;;;;;;;;;;2090450;28;20025;-66
2022/05/11 07:23:18;;;;;;;8.55;2.80;;;;;;;;;;2089216;28;20017;-67
2022/05/11 07:24:38;;;;;;;7.88;2.88;;;;;;;;;;2081597;28;20041;-67
2022/05/11 07:25:57;;;;;;;11.38;2.45;;;;;;;;;;2086986;28;20483;-67
2022/05/11 07:27:17;;;;;;;9.05;2.42;;;;;;;;;;2090659;28;20033;-67
2022/05/11 07:28:37;;;;;;;6.18;2.40;;;;;;;;;;2090478;28;20397;-67
2022/05/11 07:29:55;;;;;;;8.05;2.42;;;;;;;;;;2090831;28;20068;-66
2022/05/11 07:31:14;;;;;;;13.55;3.05;;;;;;;;;;2090294;28;20025;-67
2022/05/11 07:32:33;;;;;;;6.43;2.58;;;;;;;;;;2088810;28;20134;-67
2022/05/11 07:33:52;;;;;;;8.75;3.22;;;;;;;;;;2090281;28;20029;-67
2022/05/11 07:35:11;;;;;;;7.65;2.45;;;;;;;;;;2091024;28;20033;-67
2022/05/11 07:36:30;;;;;;;9.48;2.83;;;;;;;;;;2089757;28;20028;-67
2022/05/11 07:37:49;;;;;;;9.80;3.20;;;;;;;;;;2090786;28;20033;-67
2022/05/11 07:39:08;;;;;;;10.25;3.03;;;;;;;;;;2080754;28;20116;-68
2022/05/11 07:40:28;;;;;;;4.45;1.90;;;;;;;;;;2084160;28;20033;-67
2022/05/11 07:41:47;;;;;;;5.68;2.00;;;;;;;;;;2090654;28;20380;-67
2022/05/11 07:43:06;;;;;;;12.73;2.83;;;;;;;;;;2090464;28;20391;-67
2022/05/11 07:44:25;;;;;;;6.93;2.50;;;;;;;;;;2090487;28;20033;-67
2022/05/11 07:45:44;;;;;;;7.38;2.53;;;;;;;;;;2080981;28;20411;-68
2022/05/11 07:47:03;;;;;;;5.95;2.53;;;;;;;;;;2087204;28;20033;-67
2022/05/11 07:48:23;;;;;;;5.30;2.22;;;;;;;;;;2090135;28;20029;-67
2022/05/11 07:49:42;;;;;;;7.82;2.28;;;;;;;;;;2090415;28;20033;-67
2022/05/11 07:51:01;;;;;;;6.78;2.30;;;;;;;;;;2089809;28;20052;-68
2022/05/11 07:52:20;;;;;;;7.45;2.72;;;;;;;;;;2088183;28;20021;-66
2022/05/11 07:53:40;;;;;;;10.60;2.90;;;;;;;;;;2090332;28;20029;-67
2022/05/11 07:54:59;;;;;;;13.50;2.97;;;;;;;;;;2081471;28;20057;-67
2022/05/11 07:59:56;;;;;;;8.50;2.75;;;;;;;;;;2089015;28;20021;-68
2022/05/11 08:01:15;;;;;;;8.82;2.40;;;;;;;;;;2090299;28;20499;-67
2022/05/11 08:02:35;;;;;;;7.80;2.60;;;;;;;;;;2089576;28;20029;-67
2022/05/11 08:03:53;;;;;;;6.68;2.45;;;;;;;;;;2088920;28;20029;-67
2022/05/11 08:05:14;;;;;;;8.52;3.00;;;;;;;;;;2089163;28;20100;-67
2022/05/11 08:06:33;;;;;;;12.63;3.55;;;;;;;;;;2081604;28;20029;-68
2022/05/11 08:07:53;;;;;;;6.60;2.60;;;;;;;;;;2086929;28;20021;-67
2022/05/11 08:09:13;;;;;;;2.70;1.42;;;;;;;;;;2090540;28;20033;-67
2022/05/11 08:10:40;;;;;;;10.48;2.97;;;;;;;;;;2089972;28;20025;-66
2022/05/11 08:12:00;;;;;;;7.00;2.33;;;;;;;;;;2089041;28;20029;-66
2022/05/11 08:13:19;;;;;;;5.05;2.25;;;;;;;;;;2089205;28;20021;-66
2022/05/11 08:14:38;;;;;;;10.32;2.88;;;;;;;;;;2090321;28;20099;-66
2022/05/11 08:15:57;;;;;;;6.97;2.53;;;;;;;;;;2081551;28;20069;-66
2022/05/11 08:17:23;;;;;;;9.85;2.50;;;;;;;;;;2087212;28;20487;-66
2022/05/11 08:18:41;;;;;;;6.40;2.63;;;;;;;;;;2090447;28;20029;-65